Time;durP1;ratioP1;P1;durP2;ratioP2;P2;SDS_P1;SDS_P2;PMS_P1;PMS_P2;Temp;Humidity;BMP_temperature;BMP_pressure;BME280_temperature;BME280_humidity;BME280_pressure;Samples;Min_cycle;Max_cycle;Signal;HPM_P1;HPM_P2
2021/03/30 15:37:25;;;;;;;;;;;;;;;;;;;;;
2021/03/30 15:47:55;;;;;;;4.32;3.50;;;21.60;26.60;;;;;;4971793;28;20093;-92
2021/03/30 16:11:02;;;;;;;9.90;4.80;;;16.30;29.40;;;;;;4935991;29;20493;-91
2021/03/30 16:14:09;;;;;;;8.73;5.43;;;15.60;30.00;;;;;;4933308;29;20036;-91
2021/03/30 16:17:08;;;;;;;7.22;5.43;;;15.00;30.40;;;;;;4935767;29;20107;-92
2021/03/30 16:49:36;;;;;;;;;;;;;;;;;;;;;
2021/03/30 16:56:36;;;;;;;9.05;6.72;;;11.00;35.30;;;;;;4865537;29;20048;-91
2021/03/30 16:59:28;;;;;;;;;;;;;;;;;;;;;
2021/03/30 17:02:05;;;;;;;13.90;8.95;;;10.60;35.30;;;;;;4945624;28;20041;-90
2021/03/30 17:04:51;;;;;;;12.43;8.68;;;10.60;35.60;;;;;;4997043;28;20038;-91
2021/03/30 17:07:20;;;;;;;16.33;10.15;;;10.50;35.90;;;;;;4980299;28;20035;-91
2021/03/30 17:10:15;;;;;;;25.05;13.43;;;10.40;36.10;;;;;;4997743;28;20042;-91
2021/03/30 17:12:44;;;;;;;20.00;13.38;;;10.30;36.50;;;;;;4980017;28;20382;-91
2021/03/30 17:15:14;;;;;;;24.85;15.55;;;10.20;36.60;;;;;;4989821;28;20457;-91
2021/03/30 17:17:39;;;;;;;24.83;15.63;;;10.10;37.00;;;;;;5022895;28;20040;-91
2021/03/30 17:20:08;;;;;;;25.60;16.58;;;10.00;36.90;;;;;;5039108;28;20111;-91
2021/03/30 17:22:37;;;;;;;24.30;15.02;;;10.00;37.20;;;;;;5039436;28;20025;-92
2021/03/30 17:25:04;;;;;;;28.95;17.13;;;9.90;37.20;;;;;;5039056;28;20115;-91
2021/03/30 17:27:31;;;;;;;28.33;17.85;;;9.80;37.40;;;;;;5039678;28;20021;-92
2021/03/30 17:29:58;;;;;;;29.08;19.38;;;9.80;37.70;;;;;;5040152;28;20029;-92
2021/03/30 17:32:24;;;;;;;35.05;21.45;;;9.70;37.90;;;;;;5039918;28;20036;-91
2021/03/30 17:34:49;;;;;;;27.35;18.95;;;9.60;38.10;;;;;;5040310;28;20025;-91
2021/03/30 17:37:19;;;;;;;34.25;20.20;;;9.60;38.20;;;;;;5039941;28;20036;-90
2021/03/30 17:39:51;;;;;;;32.45;20.00;;;9.50;38.30;;;;;;5040486;28;20035;-91
2021/03/30 17:42:31;;;;;;;26.92;18.27;;;9.50;38.60;;;;;;5059769;28;20115;-91
2021/03/30 17:45:06;;;;;;;32.20;20.25;;;9.40;38.60;;;;;;5058799;28;20024;-91
2021/03/30 17:47:32;;;;;;;28.85;18.15;;;9.40;38.90;;;;;;5059636;28;20131;-91
2021/03/30 17:50:21;;;;;;;27.58;16.23;;;9.30;39.40;;;;;;5057749;28;20029;-91
2021/03/30 17:52:51;;;;;;;21.55;14.82;;;9.30;40.00;;;;;;5062981;28;20040;-90
2021/03/30 17:55:25;;;;;;;17.38;13.27;;;9.20;39.50;;;;;;5076666;28;20052;-91
2021/03/30 17:57:51;;;;;;;17.08;11.65;;;9.10;39.60;;;;;;5061941;28;20048;-91
2021/03/30 18:00:24;;;;;;;18.50;10.88;;;9.10;39.90;;;;;;5064818;28;20043;-90
2021/03/30 18:02:50;;;;;;;19.63;11.02;;;9.00;40.10;;;;;;5064774;28;20460;-91
2021/03/30 18:05:17;;;;;;;15.00;10.27;;;9.00;40.20;;;;;;5062598;28;20463;-90
2021/03/30 18:07:43;;;;;;;17.30;10.15;;;9.00;40.20;;;;;;5060288;28;20024;-90
2021/03/30 18:10:09;;;;;;;16.27;10.82;;;8.90;40.20;;;;;;5061101;28;20024;-90
2021/03/30 18:12:36;;;;;;;17.38;10.68;;;8.90;40.30;;;;;;5060788;28;20123;-90
2021/03/30 18:15:04;;;;;;;18.15;10.75;;;8.80;40.80;;;;;;5061923;28;20043;-90
2021/03/30 18:17:30;;;;;;;17.58;10.88;;;8.80;40.90;;;;;;5062053;28;20127;-90
2021/03/30 18:19:56;;;;;;;15.75;9.98;;;8.80;41.20;;;;;;5059590;28;20035;-90
2021/03/30 18:22:21;;;;;;;16.20;9.90;;;8.70;41.20;;;;;;5076598;28;20040;-91
2021/03/30 18:24:47;;;;;;;17.85;11.38;;;8.70;41.40;;;;;;5083019;28;20025;-90
2021/03/30 18:27:13;;;;;;;18.23;11.55;;;8.60;41.40;;;;;;5073754;28;20032;-90
2021/03/30 18:29:40;;;;;;;18.45;13.27;;;8.60;41.50;;;;;;5067766;28;20083;-90
2021/03/30 18:32:07;;;;;;;17.25;11.82;;;8.60;41.50;;;;;;5069356;28;20028;-90
2021/03/30 18:34:33;;;;;;;21.65;14.18;;;8.50;41.60;;;;;;5072204;28;20037;-90
2021/03/30 18:36:59;;;;;;;17.27;12.68;;;8.50;41.80;;;;;;5064817;28;20032;-91
2021/03/30 18:39:26;;;;;;;16.15;11.40;;;8.40;41.60;;;;;;5058479;28;20029;-90
2021/03/30 18:41:52;;;;;;;18.98;12.30;;;8.40;41.90;;;;;;5058372;28;20110;-90
2021/03/30 18:44:18;;;;;;;23.67;12.15;;;8.40;42.20;;;;;;5057686;28;20051;-89
2021/03/30 18:46:44;;;;;;;18.00;11.40;;;8.30;42.10;;;;;;5057272;28;20479;-90
2021/03/30 18:49:09;;;;;;;17.50;11.40;;;8.20;42.20;;;;;;5057393;28;20052;-90
2021/03/30 18:51:37;;;;;;;18.30;10.45;;;8.20;42.60;;;;;;5057797;28;20522;-90
2021/03/30 18:54:04;;;;;;;17.45;11.77;;;8.20;42.50;;;;;;5057217;28;20467;-90
2021/03/30 18:56:30;;;;;;;18.15;11.35;;;8.20;42.70;;;;;;5056910;28;20029;-90
2021/03/30 18:58:58;;;;;;;14.90;11.45;;;8.10;42.90;;;;;;5057013;28;20162;-90
2021/03/30 19:01:24;;;;;;;15.75;11.25;;;8.10;42.70;;;;;;5056902;28;20123;-90
2021/03/30 19:03:52;;;;;;;20.48;13.00;;;8.00;42.80;;;;;;5057529;28;20375;-90
2021/03/30 19:06:18;;;;;;;19.67;12.73;;;8.00;43.10;;;;;;5056434;28;20024;-89
2021/03/30 19:08:44;;;;;;;15.75;12.00;;;8.00;43.30;;;;;;5056961;28;20026;-90
2021/03/30 19:11:10;;;;;;;18.73;12.68;;;8.00;43.20;;;;;;5057509;28;20115;-91
2021/03/30 19:13:36;;;;;;;21.20;13.88;;;7.90;43.40;;;;;;5056663;28;20025;-90
2021/03/30 19:16:03;;;;;;;28.15;15.45;;;7.90;43.70;;;;;;5057082;28;20033;-90
2021/03/30 19:18:29;;;;;;;22.33;15.25;;;7.80;43.70;;;;;;5056414;28;20020;-90
2021/03/30 19:20:55;;;;;;;21.02;14.77;;;7.80;43.80;;;;;;5057690;28;20481;-90
2021/03/30 19:23:21;;;;;;;20.92;13.80;;;7.70;44.20;;;;;;5056874;28;20368;-90
2021/03/30 19:25:47;;;;;;;22.40;14.23;;;7.70;44.20;;;;;;5056592;28;20028;-91
2021/03/30 19:28:29;;;;;;;18.65;13.50;;;7.70;44.20;;;;;;5056386;28;20029;-91
2021/03/30 19:31:02;;;;;;;17.00;11.50;;;7.60;44.40;;;;;;5056876;28;20029;-91
2021/03/30 19:33:31;;;;;;;17.63;12.30;;;7.60;44.20;;;;;;5056745;28;20029;-91
2021/03/30 19:35:59;;;;;;;14.95;10.70;;;7.50;44.30;;;;;;5056806;28;20082;-91
2021/03/30 19:38:25;;;;;;;18.98;11.82;;;7.50;44.40;;;;;;5056554;28;20017;-91
2021/03/30 19:40:51;;;;;;;18.27;10.70;;;7.50;44.80;;;;;;5055986;28;20063;-91
2021/03/30 19:43:19;;;;;;;14.63;10.13;;;7.40;44.60;;;;;;5056472;28;20025;-91
2021/03/30 19:45:45;;;;;;;12.15;9.38;;;7.40;44.80;;;;;;5056884;28;20078;-91
2021/03/30 19:48:11;;;;;;;16.75;10.02;;;7.40;44.80;;;;;;5073889;28;20020;-91
2021/03/30 19:50:37;;;;;;;15.00;8.65;;;7.40;45.40;;;;;;5056548;28;20482;-91
2021/03/30 19:53:04;;;;;;;16.17;9.80;;;7.30;45.20;;;;;;5056305;28;20463;-91
2021/03/30 19:55:33;;;;;;;14.05;9.02;;;7.30;45.20;;;;;;5056346;28;20059;-91
2021/03/30 19:58:06;;;;;;;13.70;8.95;;;7.30;45.40;;;;;;5073188;28;20410;-91
2021/03/30 20:00:34;;;;;;;15.48;10.45;;;7.30;45.60;;;;;;5057167;28;20473;-91
2021/03/30 20:03:01;;;;;;;16.38;11.02;;;7.20;46.00;;;;;;5057475;28;20025;-90
2021/03/30 20:05:27;;;;;;;18.35;11.00;;;7.20;46.00;;;;;;5066884;28;20025;-90
2021/03/30 20:07:53;;;;;;;25.23;15.23;;;7.10;46.00;;;;;;5069483;28;20021;-89
2021/03/30 20:10:24;;;;;;;33.72;17.48;;;7.10;46.20;;;;;;5072903;28;20025;-89
2021/03/30 20:12:51;;;;;;;32.22;19.10;;;7.10;46.20;;;;;;5073108;28;20040;-89
2021/03/30 20:15:18;;;;;;;28.15;16.58;;;7.00;47.10;;;;;;5061758;28;20036;-90
2021/03/30 20:17:44;;;;;;;38.78;20.13;;;7.00;47.00;;;;;;5058354;28;20094;-90
2021/03/30 20:20:10;;;;;;;37.45;18.80;;;7.00;47.10;;;;;;5061568;28;20024;-89
2021/03/30 20:22:37;;;;;;;33.05;18.80;;;6.90;47.10;;;;;;5062082;28;20086;-90
2021/03/30 20:25:06;;;;;;;29.73;17.02;;;6.90;47.60;;;;;;5061264;28;20029;-91
2021/03/30 20:27:32;;;;;;;32.38;16.90;;;6.80;47.80;;;;;;5060211;28;20073;-90
2021/03/30 20:29:57;;;;;;;31.50;17.70;;;6.80;48.10;;;;;;5059781;28;20024;-88
2021/03/30 20:32:23;;;;;;;27.33;16.40;;;6.70;48.20;;;;;;5060244;28;20035;-89
2021/03/30 20:34:49;;;;;;;29.65;18.33;;;6.60;48.50;;;;;;5059592;28;20039;-89
2021/03/30 20:37:15;;;;;;;26.25;16.42;;;6.50;49.50;;;;;;5059954;28;20036;-89
2021/03/30 20:39:40;;;;;;;26.73;15.95;;;6.40;49.30;;;;;;5059584;28;20387;-89
2021/03/30 20:42:07;;;;;;;21.90;12.63;;;6.30;49.90;;;;;;5059405;28;20064;-90
2021/03/30 20:44:34;;;;;;;21.98;13.07;;;6.20;50.20;;;;;;5059331;28;20033;-89
2021/03/30 20:47:02;;;;;;;20.42;10.60;;;6.10;50.80;;;;;;5059214;28;20017;-89
2021/03/30 20:49:27;;;;;;;19.95;10.93;;;6.10;50.30;;;;;;5059311;28;20020;-89
2021/03/30 20:51:53;;;;;;;14.85;10.20;;;6.00;50.60;;;;;;5060140;28;20028;-90
2021/03/30 20:54:19;;;;;;;13.60;9.35;;;6.00;50.90;;;;;;5061319;28;20032;-90
2021/03/30 20:56:45;;;;;;;11.07;7.82;;;5.90;52.10;;;;;;5084432;28;20035;-89
2021/03/30 20:59:11;;;;;;;16.27;10.05;;;5.80;51.20;;;;;;5083738;28;20031;-89
2021/03/30 21:01:37;;;;;;;13.88;8.85;;;5.80;52.40;;;;;;5060602;28;20037;-91
2021/03/30 21:04:03;;;;;;;12.23;9.23;;;5.70;51.90;;;;;;5059762;28;20035;-91
2021/03/30 21:06:29;;;;;;;13.15;8.07;;;5.70;52.10;;;;;;5059340;28;20027;-90
2021/03/30 21:08:55;;;;;;;15.40;10.23;;;5.70;52.30;;;;;;5076310;28;20111;-91
2021/03/30 21:11:20;;;;;;;20.63;11.85;;;5.60;52.60;;;;;;5058749;28;20033;-90
2021/03/30 21:13:46;;;;;;;18.70;9.88;;;5.60;53.40;;;;;;5059177;28;20033;-91
2021/03/30 21:16:12;;;;;;;14.68;11.07;;;5.50;52.90;;;;;;5076161;28;20035;-90
2021/03/30 21:18:38;;;;;;;17.52;11.70;;;5.50;53.10;;;;;;5058678;28;20028;-90
2021/03/30 21:21:04;;;;;;;14.27;9.63;;;5.40;53.40;;;;;;5058944;28;20089;-91
2021/03/30 21:23:30;;;;;;;14.10;10.20;;;5.40;53.30;;;;;;5076019;28;20138;-92
2021/03/30 21:25:56;;;;;;;16.73;10.68;;;5.40;53.20;;;;;;5059157;28;20371;-92
2021/03/30 21:28:23;;;;;;;16.23;10.80;;;5.40;53.30;;;;;;5058773;28;20270;-90
2021/03/30 21:30:50;;;;;;;15.82;11.93;;;5.30;53.70;;;;;;5058438;28;20021;-91
2021/03/30 21:33:20;;;;;;;15.35;10.02;;;5.30;54.20;;;;;;5059458;28;20060;-91
2021/03/30 21:35:47;;;;;;;14.57;9.38;;;5.20;54.10;;;;;;5058692;28;20031;-91
2021/03/30 21:38:13;;;;;;;12.35;9.00;;;5.30;53.80;;;;;;5058745;28;20122;-90
2021/03/30 21:40:39;;;;;;;10.32;7.55;;;5.20;54.50;;;;;;5056519;28;20467;-90
2021/03/30 21:43:05;;;;;;;9.30;6.78;;;5.20;54.20;;;;;;5050022;28;20028;-90
2021/03/30 21:45:31;;;;;;;11.48;7.70;;;5.20;54.20;;;;;;5052491;28;20047;-88
2021/03/30 21:47:57;;;;;;;11.25;7.47;;;5.20;54.50;;;;;;5054847;28;20032;-90
2021/03/30 21:50:25;;;;;;;10.70;7.15;;;5.10;54.40;;;;;;5053042;28;20025;-88
2021/03/30 21:52:52;;;;;;;12.65;7.20;;;5.10;54.50;;;;;;5069189;28;20060;-88
2021/03/30 21:55:18;;;;;;;10.13;7.13;;;5.10;54.40;;;;;;5064603;28;20425;-89
2021/03/30 21:57:43;;;;;;;10.38;7.32;;;5.00;54.40;;;;;;5057190;28;20028;-90
2021/03/30 22:00:17;;;;;;;10.40;7.22;;;5.00;54.60;;;;;;5059933;28;20028;-89
2021/03/30 22:02:43;;;;;;;11.48;7.18;;;5.00;54.70;;;;;;5061262;28;20033;-90
2021/03/30 22:05:10;;;;;;;11.18;7.10;;;5.00;54.80;;;;;;5059795;28;20025;-90
2021/03/30 22:07:36;;;;;;;11.32;7.50;;;4.90;55.00;;;;;;5059430;28;20468;-89
2021/03/30 22:10:08;;;;;;;10.90;7.28;;;4.90;55.20;;;;;;5059012;28;20037;-89
2021/03/30 22:12:33;;;;;;;10.05;6.55;;;4.90;55.10;;;;;;5057425;28;20061;-90
2021/03/30 22:14:59;;;;;;;10.68;7.78;;;4.90;55.40;;;;;;5055853;28;20040;-89
2021/03/30 22:17:25;;;;;;;13.23;7.88;;;4.90;55.50;;;;;;5037821;28;20060;-89
2021/03/30 22:19:51;;;;;;;13.80;7.70;;;4.80;55.70;;;;;;5055467;28;20108;-90
2021/03/30 22:22:17;;;;;;;10.63;7.72;;;4.80;55.70;;;;;;5054605;28;20087;-89
2021/03/30 22:24:43;;;;;;;13.75;7.82;;;4.80;56.00;;;;;;5054366;28;20460;-89
2021/03/30 22:27:08;;;;;;;10.80;7.63;;;4.80;56.00;;;;;;5054593;28;20033;-89
2021/03/30 22:29:34;;;;;;;12.60;8.30;;;4.80;55.70;;;;;;5054704;28;20020;-89
2021/03/30 22:32:00;;;;;;;10.65;7.50;;;4.70;55.80;;;;;;5055812;28;20456;-89
2021/03/30 22:34:26;;;;;;;10.52;7.13;;;4.70;55.60;;;;;;5054566;28;20029;-90
2021/03/30 22:36:52;;;;;;;9.90;6.80;;;4.70;55.80;;;;;;5038342;28;20075;-90
2021/03/30 22:39:18;;;;;;;9.57;6.45;;;4.70;55.40;;;;;;5038382;28;20075;-89
2021/03/30 22:41:45;;;;;;;11.00;7.97;;;4.70;55.50;;;;;;5043622;28;20048;-90
2021/03/30 22:44:11;;;;;;;11.65;6.95;;;4.70;56.30;;;;;;5058757;28;20035;-90
2021/03/30 22:46:38;;;;;;;9.98;6.90;;;4.70;55.90;;;;;;5057059;28;20029;-90
2021/03/30 22:49:05;;;;;;;8.77;6.03;;;4.70;56.10;;;;;;5062789;28;20051;-90
2021/03/30 22:51:31;;;;;;;9.38;6.38;;;4.70;55.90;;;;;;5081487;28;20100;-89
2021/03/30 22:53:57;;;;;;;14.95;7.25;;;4.70;55.80;;;;;;5064296;28;20028;-90
2021/03/30 22:56:22;;;;;;;10.35;7.03;;;4.70;55.90;;;;;;5076150;28;20387;-90
2021/03/30 22:58:48;;;;;;;8.85;6.38;;;4.70;56.30;;;;;;5073748;28;20020;-90
2021/03/30 23:01:14;;;;;;;10.73;6.10;;;4.70;56.20;;;;;;5074759;28;20028;-90
2021/03/30 23:03:39;;;;;;;9.38;6.35;;;4.70;56.00;;;;;;5073731;28;20024;-89
2021/03/30 23:06:05;;;;;;;10.27;7.18;;;4.70;56.00;;;;;;5073440;28;20026;-90
2021/03/30 23:08:31;;;;;;;9.30;6.72;;;4.70;56.00;;;;;;5074027;28;20025;-90
2021/03/30 23:10:57;;;;;;;16.40;8.25;;;4.70;55.90;;;;;;5073252;28;20036;-90
2021/03/30 23:13:22;;;;;;;17.23;8.15;;;4.70;56.40;;;;;;5073066;28;20103;-90
2021/03/30 23:15:48;;;;;;;16.15;8.43;;;4.70;56.10;;;;;;5073600;28;20031;-89
2021/03/30 23:18:14;;;;;;;14.10;8.38;;;4.70;56.00;;;;;;5074442;28;20048;-89
2021/03/30 23:20:39;;;;;;;18.60;9.50;;;4.70;56.00;;;;;;5081959;28;20376;-88
2021/03/30 23:23:05;;;;;;;12.75;8.98;;;4.70;55.80;;;;;;5089426;28;20035;-88
2021/03/30 23:25:31;;;;;;;11.38;7.68;;;4.70;56.00;;;;;;5088490;28;20098;-89
2021/03/30 23:27:57;;;;;;;16.88;7.53;;;4.70;55.80;;;;;;5080846;28;20079;-89
2021/03/30 23:30:25;;;;;;;10.57;7.68;;;4.60;55.60;;;;;;5077100;28;20032;-90
2021/03/30 23:32:52;;;;;;;9.60;7.05;;;4.70;55.70;;;;;;5057609;28;20024;-90
2021/03/30 23:35:23;;;;;;;10.75;6.68;;;4.60;56.00;;;;;;5075746;28;20033;-90
2021/03/30 23:37:49;;;;;;;12.25;8.05;;;4.60;55.90;;;;;;5057186;28;20036;-89
2021/03/30 23:40:17;;;;;;;10.27;6.95;;;4.60;55.80;;;;;;5057127;28;20021;-90
2021/03/30 23:42:44;;;;;;;11.18;7.32;;;4.60;55.70;;;;;;5057034;28;20048;-90
2021/03/30 23:45:10;;;;;;;12.63;7.78;;;4.60;55.80;;;;;;5056262;28;20107;-90
2021/03/30 23:47:36;;;;;;;11.70;7.68;;;4.60;56.00;;;;;;5074514;28;20029;-90
2021/03/30 23:50:08;;;;;;;12.52;7.70;;;4.60;55.80;;;;;;5056463;28;20025;-90
2021/03/30 23:52:34;;;;;;;14.50;8.35;;;4.70;56.00;;;;;;5073688;28;20036;-90
2021/03/30 23:55:00;;;;;;;18.23;10.52;;;4.60;56.10;;;;;;5077608;28;20029;-90
2021/03/30 23:57:25;;;;;;;16.77;10.05;;;4.60;56.00;;;;;;5078399;28;20025;-90
2021/03/30 23:59:51;;;;;;;16.40;9.95;;;4.60;55.80;;;;;;5060399;28;20106;-89
